WEON weather

Weona
Weona, Arkansas, United States

Public forecast

Using degrees Fahrenheit for public forecast. Weather courtesy of forecast.io.

METAR (pilot weather report)

Closest report is Jonesboro Municipal Airport, 17.7 nm (32.7 km) N. Retrieved 2019/06/24 23:53 UTC (51 minutes ago):

KJBR 242353Z AUTO 20011KT 10SM FEW031 28/21 A2986 RMK AO2 SLP110 T02830211 10294 20261 55000 $

TAF (pilot weather forecast)

Forecast is more than 12 hours old.

Closest forecast is Jonesboro Municipal Airport, 17.7 nm (32.7 km) N. Retrieved 2019/06/24 00:27 UTC (1 day ago):

TAF KJBR 242324Z 2500/2524 24006KT P6SM FEW030 BKN040 BKN250 FM250300 VRB03KT P6SM SCT035 SCT250 FM251400 21007KT P6SM FEW040 SCT250